createdAt,value
2019-02-28T00:00:00.422Z,48.67
2019-02-28T00:02:31.749Z,47.67
2019-02-28T00:05:05.883Z,40.77
2019-02-28T00:07:35.628Z,45.80
2019-02-28T00:10:06.884Z,48.83
2019-02-28T00:12:38.071Z,46.47
2019-02-28T00:15:09.234Z,44.73
2019-02-28T00:17:43.587Z,48.30
2019-02-28T00:20:13.058Z,42.87
2019-02-28T00:22:48.371Z,42.57
2019-02-28T00:25:16.987Z,45.40
2019-02-28T00:27:47.891Z,42.00
2019-02-28T00:30:19.420Z,43.17
2019-02-28T00:32:50.479Z,41.73
2019-02-28T00:35:21.615Z,45.77
2019-02-28T00:37:52.795Z,49.57
2019-02-28T00:40:23.963Z,45.80
2019-02-28T00:42:55.175Z,47.27
2019-02-28T00:45:26.072Z,49.53
2019-02-28T00:47:56.991Z,42.13
2019-02-28T00:50:28.368Z,53.80
2019-02-28T00:52:59.564Z,42.47
2019-02-28T00:55:30.699Z,49.23
2019-02-28T00:58:01.927Z,47.57
2019-02-28T01:00:33.060Z,47.93
2019-02-28T01:03:04.284Z,46.53
2019-02-28T01:05:36.564Z,42.90
2019-02-28T01:08:08.378Z,44.50
2019-02-28T01:10:40.056Z,48.17
2019-02-28T01:13:11.053Z,44.47
2019-02-28T01:15:44.813Z,47.80
2019-02-28T01:18:15.774Z,45.37
2019-02-28T01:20:49.976Z,43.37
2019-02-28T01:23:20.121Z,45.07
2019-02-28T01:25:51.014Z,41.17
2019-02-28T01:28:26.596Z,42.50
2019-02-28T01:30:55.247Z,39.73
2019-02-28T01:33:26.152Z,41.27
2019-02-28T01:35:58.675Z,42.37
2019-02-28T01:38:30.123Z,44.83
2019-02-28T01:41:01.034Z,40.80
2019-02-28T01:43:31.954Z,44.37
2019-02-28T01:46:03.086Z,42.00
2019-02-28T01:48:34.240Z,45.07
2019-02-28T01:51:05.299Z,44.37
2019-02-28T01:53:36.444Z,46.93
2019-02-28T01:56:07.590Z,47.60
2019-02-28T01:58:38.802Z,48.30
2019-02-28T02:01:09.948Z,41.63
2019-02-28T02:03:41.774Z,43.00
2019-02-28T02:06:13.327Z,44.63
2019-02-28T02:08:44.479Z,41.77
2019-02-28T02:11:15.688Z,41.63
2019-02-28T02:13:46.595Z,39.00
2019-02-28T02:16:17.730Z,43.37
2019-02-28T02:18:48.893Z,42.53
2019-02-28T02:21:20.095Z,41.57
2019-02-28T02:23:53.104Z,37.60
2019-02-28T02:26:23.823Z,41.57
2019-02-28T02:28:54.970Z,40.43
2019-02-28T02:31:28.668Z,42.77
2019-02-28T02:33:58.702Z,43.17
2019-02-28T02:36:29.829Z,39.43
2019-02-28T02:39:00.741Z,44.63
2019-02-28T02:41:33.695Z,46.47
2019-02-28T02:44:05.949Z,43.47
2019-02-28T02:46:37.092Z,40.97
2019-02-28T02:49:08.248Z,44.17
2019-02-28T02:51:39.130Z,47.57
2019-02-28T02:54:10.032Z,45.40
2019-02-28T02:56:42.177Z,46.60
2019-02-28T02:59:14.142Z,42.63
2019-02-28T03:01:45.278Z,46.77
2019-02-28T03:04:21.359Z,47.27
2019-02-28T03:06:49.032Z,50.53
2019-02-28T03:09:20.168Z,45.87
2019-02-28T03:11:51.312Z,49.17
2019-02-28T03:14:22.449Z,50.10
2019-02-28T03:16:53.587Z,48.80
2019-02-28T03:19:25.021Z,53.67
2019-02-28T03:21:55.913Z,40.53
2019-02-28T03:24:27.061Z,47.00
2019-02-28T03:26:58.459Z,48.83
2019-02-28T03:29:30.960Z,45.70
2019-02-28T03:32:02.357Z,50.40
2019-02-28T03:34:33.615Z,47.87
2019-02-28T03:37:04.571Z,49.33
2019-02-28T03:39:35.691Z,41.97
2019-02-28T03:42:06.949Z,41.40
2019-02-28T03:44:38.316Z,41.43
2019-02-28T03:47:09.470Z,41.40
2019-02-28T03:49:48.565Z,40.27
2019-02-28T03:52:13.215Z,46.03
2019-02-28T03:54:44.395Z,39.57
2019-02-28T03:57:16.426Z,44.90
2019-02-28T03:59:55.478Z,40.73
2019-02-28T04:02:22.579Z,40.83
2019-02-28T04:04:53.933Z,39.43
2019-02-28T04:07:24.887Z,40.00
2019-02-28T04:09:56.053Z,41.43
2019-02-28T04:12:27.213Z,37.07
2019-02-28T04:14:58.113Z,39.33
2019-02-28T04:17:30.611Z,43.30
2019-02-28T04:20:01.864Z,39.80
2019-02-28T04:22:33.002Z,46.83
2019-02-28T04:25:05.635Z,52.97
2019-02-28T04:27:40.500Z,51.77
2019-02-28T04:30:09.663Z,48.77
2019-02-28T04:32:40.795Z,47.63
2019-02-28T04:35:12.100Z,47.50
2019-02-28T04:37:46.525Z,42.63
2019-02-28T04:40:15.984Z,43.57
2019-02-28T04:42:47.142Z,41.60
2019-02-28T04:45:18.324Z,45.30
2019-02-28T04:47:49.216Z,41.53
2019-02-28T04:50:20.360Z,41.73
2019-02-28T04:52:51.486Z,41.87
2019-02-28T04:55:23.619Z,41.63
2019-02-28T04:57:54.751Z,44.20
2019-02-28T05:00:26.162Z,39.57
2019-02-28T05:02:57.326Z,38.90
2019-02-28T05:05:28.855Z,42.73
2019-02-28T05:08:04.534Z,37.60
2019-02-28T05:10:32.758Z,37.07
2019-02-28T05:13:04.035Z,38.40
2019-02-28T05:15:38.477Z,32.97
2019-02-28T05:18:08.031Z,40.47
2019-02-28T05:20:44.979Z,37.83
2019-02-28T05:23:12.037Z,35.47
2019-02-28T05:25:42.946Z,37.00
2019-02-28T05:28:14.087Z,32.27
2019-02-28T05:30:45.459Z,38.73
2019-02-28T05:33:16.350Z,39.70
2019-02-28T05:35:47.521Z,36.63
2019-02-28T05:38:21.227Z,43.83
2019-02-28T05:40:52.091Z,38.53
2019-02-28T05:43:23.253Z,41.43
2019-02-28T05:45:54.440Z,35.80
2019-02-28T05:48:25.579Z,36.13
2019-02-28T05:50:56.732Z,38.60
2019-02-28T05:53:27.868Z,36.00
2019-02-28T05:56:00.035Z,35.20
2019-02-28T05:58:31.279Z,39.03
2019-02-28T06:01:02.436Z,38.63
2019-02-28T06:03:33.831Z,40.63
2019-02-28T06:06:05.055Z,35.93
2019-02-28T06:08:39.236Z,33.27
2019-02-28T06:11:08.674Z,40.23
2019-02-28T06:13:39.679Z,41.43
2019-02-28T06:16:12.500Z,38.30
2019-02-28T06:18:43.702Z,36.83
2019-02-28T06:21:15.013Z,42.13
2019-02-28T06:23:46.148Z,41.50
2019-02-28T06:26:17.557Z,45.13
2019-02-28T06:28:48.706Z,37.17
2019-02-28T06:31:19.929Z,38.47
2019-02-28T06:33:51.070Z,40.87
2019-02-28T06:36:22.236Z,41.30
2019-02-28T06:38:54.597Z,41.87
2019-02-28T06:41:25.976Z,36.70
2019-02-28T06:43:57.135Z,34.77
2019-02-28T06:46:31.356Z,37.10
2019-02-28T06:49:06.992Z,35.40
2019-02-28T06:51:35.311Z,33.23
2019-02-28T06:54:07.961Z,32.10
2019-02-28T06:56:39.295Z,32.23
2019-02-28T06:59:10.436Z,31.60
2019-02-28T07:01:41.801Z,30.67
2019-02-28T07:04:14.509Z,32.43
2019-02-28T07:06:45.808Z,31.83
2019-02-28T07:09:18.102Z,41.37
2019-02-28T07:11:51.270Z,40.43
2019-02-28T07:14:22.543Z,36.97
2019-02-28T07:16:53.695Z,34.17
2019-02-28T07:19:26.166Z,38.30
2019-02-28T07:22:00.096Z,38.53
2019-02-28T07:24:37.258Z,40.83
2019-02-28T07:27:05.227Z,37.37
2019-02-28T07:29:36.110Z,36.53
2019-02-28T07:32:07.263Z,33.13
2019-02-28T07:34:38.412Z,39.80
2019-02-28T07:37:10.115Z,46.90
2019-02-28T07:39:41.137Z,46.53
2019-02-28T07:42:14.183Z,45.10
2019-02-28T07:44:45.099Z,50.33
2019-02-28T07:47:17.577Z,51.07
2019-02-28T07:49:50.237Z,46.37
2019-02-28T07:52:22.853Z,57.37
2019-02-28T07:54:55.806Z,42.20
2019-02-28T07:57:26.557Z,48.13
2019-02-28T07:59:57.699Z,44.43
2019-02-28T08:02:28.827Z,51.03
2019-02-28T08:05:00.268Z,58.57
2019-02-28T08:07:31.432Z,46.57
2019-02-28T08:10:02.562Z,63.90
2019-02-28T08:12:33.459Z,61.33
2019-02-28T08:15:07.080Z,66.93
2019-02-28T08:17:40.601Z,66.97
2019-02-28T08:20:11.228Z,67.40
2019-02-28T08:22:42.399Z,74.27
2019-02-28T08:25:13.464Z,76.20
2019-02-28T08:27:46.067Z,71.03
2019-02-28T08:30:19.640Z,75.90
2019-02-28T08:32:52.075Z,82.37
2019-02-28T08:35:23.465Z,78.17
2019-02-28T08:37:57.038Z,85.10
2019-02-28T08:40:27.599Z,86.90
2019-02-28T08:42:58.751Z,81.63
2019-02-28T08:45:33.379Z,83.73
2019-02-28T08:48:04.611Z,86.37
2019-02-28T08:50:35.498Z,76.03
2019-02-28T08:53:06.479Z,79.83
2019-02-28T08:55:38.386Z,84.97
2019-02-28T08:58:10.707Z,82.57
2019-02-28T09:00:41.916Z,86.90
2019-02-28T09:03:12.815Z,82.53
2019-02-28T09:05:45.091Z,82.43
2019-02-28T09:08:17.311Z,77.50
2019-02-28T09:10:48.592Z,84.83
2019-02-28T09:13:19.654Z,77.37
2019-02-28T09:15:50.792Z,92.13
2019-02-28T09:18:21.939Z,81.70
2019-02-28T09:20:53.095Z,81.17
2019-02-28T09:23:24.244Z,84.60
2019-02-28T09:25:56.611Z,88.30
2019-02-28T09:28:28.115Z,84.27
2019-02-28T09:31:01.406Z,86.97
2019-02-28T09:33:32.247Z,85.70
2019-02-28T09:36:03.387Z,93.57
2019-02-28T09:38:34.287Z,78.27
2019-02-28T09:41:05.451Z,78.43
2019-02-28T09:43:36.691Z,90.20
2019-02-28T09:46:09.065Z,84.60
2019-02-28T09:48:40.424Z,81.53
2019-02-28T09:51:11.540Z,90.47
2019-02-28T09:53:43.728Z,87.37
2019-02-28T09:56:14.868Z,90.40
2019-02-28T09:58:46.015Z,82.43
2019-02-28T10:01:17.224Z,81.43
2019-02-28T10:03:48.388Z,84.87
2019-02-28T10:06:19.525Z,85.30
2019-02-28T10:08:50.924Z,88.27
2019-02-28T10:11:22.076Z,91.67
2019-02-28T10:13:54.148Z,86.83
2019-02-28T10:16:25.187Z,79.63
2019-02-28T10:18:56.345Z,85.40
2019-02-28T10:21:27.499Z,89.43
2019-02-28T10:23:58.651Z,79.17
2019-02-28T10:26:29.791Z,90.93
2019-02-28T10:29:01.288Z,90.77
2019-02-28T10:31:37.360Z,87.25
2019-02-28T10:34:06.617Z,85.27
2019-02-28T10:36:37.835Z,87.93
2019-02-28T10:39:09.770Z,87.70
2019-02-28T10:41:40.678Z,84.80
2019-02-28T10:44:12.095Z,85.50
2019-02-28T10:46:43.319Z,76.60
2019-02-28T10:49:14.595Z,85.40
2019-02-28T10:51:49.557Z,84.57
2019-02-28T10:54:18.427Z,86.30
2019-02-28T10:56:49.919Z,86.63
2019-02-28T10:59:24.149Z,90.20
2019-02-28T11:01:54.274Z,83.47
2019-02-28T11:04:25.558Z,87.30
2019-02-28T11:06:59.324Z,88.53
2019-02-28T11:09:29.724Z,82.03
2019-02-28T11:12:00.935Z,91.60
2019-02-28T11:14:32.173Z,87.73
2019-02-28T11:17:03.470Z,89.17
2019-02-28T11:19:34.695Z,88.67
2019-02-28T11:22:05.983Z,80.27
2019-02-28T11:24:38.067Z,84.13
2019-02-28T11:27:09.210Z,89.93
2019-02-28T11:29:40.127Z,81.23
2019-02-28T11:32:11.340Z,87.33
2019-02-28T11:34:42.243Z,85.10
2019-02-28T11:37:13.307Z,77.83
2019-02-28T11:39:44.528Z,82.90
2019-02-28T11:42:15.741Z,77.23
2019-02-28T11:44:47.715Z,84.23
2019-02-28T11:47:19.755Z,82.03
2019-02-28T11:49:51.218Z,78.37
2019-02-28T11:52:24.422Z,74.53
2019-02-28T11:54:55.110Z,82.33
2019-02-28T11:57:26.167Z,79.20
2019-02-28T12:00:00.066Z,79.20
2019-02-28T12:02:31.704Z,75.33
2019-02-28T12:05:02.847Z,80.30
2019-02-28T12:07:35.674Z,74.33
2019-02-28T12:10:07.433Z,75.77
2019-02-28T12:12:38.408Z,73.53
2019-02-28T12:15:11.043Z,79.27
2019-02-28T12:17:42.195Z,78.93
2019-02-28T12:20:13.768Z,78.43
2019-02-28T12:22:49.217Z,78.53
2019-02-28T12:25:19.111Z,82.73
2019-02-28T12:27:51.108Z,81.13
2019-02-28T12:30:25.151Z,78.10
2019-02-28T12:32:56.626Z,85.17
2019-02-28T12:35:27.616Z,79.83
2019-02-28T12:37:58.749Z,80.40
2019-02-28T12:40:30.247Z,84.60
2019-02-28T12:43:01.474Z,77.57
2019-02-28T12:45:34.522Z,84.63
2019-02-28T12:48:05.915Z,83.73
2019-02-28T12:50:38.123Z,81.63
2019-02-28T12:53:09.532Z,87.20
2019-02-28T12:55:41.058Z,85.00
2019-02-28T12:58:12.226Z,83.30
2019-02-28T13:00:43.552Z,86.07
2019-02-28T13:03:19.157Z,93.60
2019-02-28T13:05:49.309Z,80.07
2019-02-28T13:08:20.439Z,88.03
2019-02-28T13:10:51.988Z,92.30
2019-02-28T13:13:27.425Z,94.13
2019-02-28T13:15:55.904Z,89.67
2019-02-28T13:18:28.339Z,89.13
2019-02-28T13:20:59.643Z,94.43
2019-02-28T13:23:32.912Z,88.67
2019-02-28T13:26:03.802Z,86.43
2019-02-28T13:28:34.699Z,79.10
2019-02-28T13:31:07.418Z,86.90
2019-02-28T13:33:38.427Z,93.67
2019-02-28T13:36:10.185Z,82.83
2019-02-28T13:38:41.316Z,88.27
2019-02-28T13:41:17.792Z,87.03
2019-02-28T13:43:45.628Z,90.00
2019-02-28T13:46:16.763Z,84.20
2019-02-28T13:48:48.215Z,91.00
2019-02-28T13:51:19.429Z,94.57
2019-02-28T13:53:50.339Z,76.87
2019-02-28T13:56:21.543Z,69.47
2019-02-28T13:58:53.768Z,73.73
2019-02-28T14:01:25.286Z,79.27
2019-02-28T14:03:56.191Z,81.07
2019-02-28T14:06:27.120Z,74.07
2019-02-28T14:08:58.236Z,80.27
2019-02-28T14:11:29.595Z,68.87
2019-02-28T14:14:00.955Z,74.17
2019-02-28T14:16:31.887Z,75.07
2019-02-28T14:19:03.287Z,76.97
2019-02-28T14:21:37.013Z,73.07
2019-02-28T14:24:07.357Z,75.07
2019-02-28T14:26:42.876Z,75.00
2019-02-28T14:29:11.699Z,70.07
2019-02-28T14:31:43.004Z,72.60
2019-02-28T14:34:14.151Z,75.83
2019-02-28T14:36:46.149Z,81.00
2019-02-28T14:39:17.421Z,81.17
2019-02-28T14:41:48.423Z,78.73
2019-02-28T14:44:19.315Z,83.43
2019-02-28T14:46:53.311Z,84.57
2019-02-28T14:49:23.169Z,92.07
2019-02-28T14:51:54.319Z,78.27
2019-02-28T14:54:25.531Z,76.93
2019-02-28T14:56:56.575Z,79.80
2019-02-28T14:59:28.596Z,73.03
2019-02-28T15:02:00.407Z,78.07
2019-02-28T15:04:34.334Z,69.77
2019-02-28T15:07:05.552Z,64.93
2019-02-28T15:09:36.720Z,64.43
2019-02-28T15:12:08.133Z,70.87
2019-02-28T15:14:40.565Z,66.23
2019-02-28T15:17:11.707Z,61.00
2019-02-28T15:19:43.099Z,62.60
2019-02-28T15:22:17.232Z,60.67
2019-02-28T15:24:48.375Z,58.10
2019-02-28T15:27:19.353Z,59.90
2019-02-28T15:29:50.508Z,53.97
2019-02-28T15:32:23.469Z,53.80
2019-02-28T15:34:54.267Z,53.17
2019-02-28T15:37:25.647Z,51.37
2019-02-28T15:39:57.044Z,59.23
2019-02-28T15:42:28.519Z,53.47
2019-02-28T15:45:00.437Z,55.50
2019-02-28T15:47:32.499Z,46.77
2019-02-28T15:50:04.107Z,45.07
2019-02-28T15:52:36.701Z,43.87
2019-02-28T15:55:08.136Z,43.73
2019-02-28T15:57:39.662Z,42.43
2019-02-28T16:00:15.769Z,45.63
2019-02-28T16:02:47.175Z,44.47
2019-02-28T16:05:18.237Z,39.70
2019-02-28T16:07:50.574Z,42.43
2019-02-28T16:10:24.080Z,37.73
2019-02-28T16:12:55.547Z,44.40
2019-02-28T16:15:26.601Z,45.60
2019-02-28T16:17:57.806Z,39.77
2019-02-28T16:20:31.883Z,39.80
2019-02-28T16:23:02.253Z,37.33
2019-02-28T16:25:34.338Z,46.40
2019-02-28T16:28:07.794Z,43.60
2019-02-28T16:30:40.067Z,36.87
2019-02-28T16:33:11.223Z,44.07
2019-02-28T16:35:46.754Z,35.70
2019-02-28T16:38:16.095Z,37.67
2019-02-28T16:40:50.048Z,33.17
2019-02-28T16:43:21.670Z,23.73
2019-02-28T16:45:52.751Z,26.47
2019-02-28T16:48:23.875Z,16.33
2019-02-28T16:50:56.859Z,17.53
2019-02-28T16:53:27.673Z,14.10
2019-02-28T16:55:58.697Z,10.00
2019-02-28T16:58:29.866Z,15.13
2019-02-28T17:01:01.083Z,13.30
2019-02-28T17:03:32.302Z,11.13
2019-02-28T17:06:03.747Z,14.07
2019-02-28T17:08:41.188Z,13.50
2019-02-28T17:11:14.720Z,14.47
2019-02-28T17:13:59.491Z,18.80
2019-02-28T17:16:38.145Z,18.57
2019-02-28T17:19:09.256Z,17.23
2019-02-28T17:21:40.231Z,14.33
2019-02-28T17:24:12.163Z,18.63
2019-02-28T17:27:18.700Z,25.93
2019-02-28T17:30:11.708Z,18.83
2019-02-28T17:32:42.955Z,15.23
2019-02-28T17:35:14.375Z,18.53
2019-02-28T17:37:45.855Z,15.67
2019-02-28T17:40:17.001Z,18.93
2019-02-28T17:42:49.681Z,17.60
2019-02-28T17:45:28.994Z,20.43
2019-02-28T17:48:26.287Z,20.40
2019-02-28T17:51:22.574Z,18.50
2019-02-28T17:54:36.225Z,15.43
2019-02-28T17:57:21.921Z,14.67
2019-02-28T18:00:51.882Z,19.07
2019-02-28T18:03:39.511Z,11.63
2019-02-28T18:06:52.695Z,25.37
2019-02-28T18:09:49.354Z,16.60
2019-02-28T18:12:55.174Z,21.40
2019-02-28T18:15:47.715Z,16.67
2019-02-28T18:18:46.356Z,17.00
2019-02-28T18:22:01.888Z,21.00
2019-02-28T18:25:10.787Z,21.10
2019-02-28T18:28:29.301Z,18.10
2019-02-28T18:31:19.208Z,19.17
2019-02-28T18:33:55.193Z,19.43
2019-02-28T18:36:28.607Z,16.80
2019-02-28T18:38:59.670Z,20.73
2019-02-28T18:41:30.943Z,24.53
2019-02-28T18:44:03.641Z,25.83
2019-02-28T18:46:34.724Z,21.37
2019-02-28T18:49:05.914Z,24.23
2019-02-28T18:51:37.075Z,17.70
2019-02-28T18:54:08.548Z,21.83
2019-02-28T18:56:39.853Z,19.90
2019-02-28T18:59:13.460Z,23.20
2019-02-28T19:01:44.761Z,19.80
2019-02-28T19:04:15.912Z,18.03
2019-02-28T19:06:47.079Z,25.97
2019-02-28T19:09:25.215Z,17.87
2019-02-28T19:11:56.421Z,20.80
2019-02-28T19:14:27.809Z,20.27
2019-02-28T19:16:58.987Z,22.50
2019-02-28T19:19:30.297Z,15.43
2019-02-28T19:22:02.483Z,20.27
2019-02-28T19:24:33.901Z,17.60
2019-02-28T19:27:04.939Z,15.87
2019-02-28T19:29:36.142Z,22.10
2019-02-28T19:32:07.290Z,18.97
2019-02-28T19:34:38.507Z,18.10
2019-02-28T19:37:09.435Z,18.33
2019-02-28T19:39:40.332Z,23.40
2019-02-28T19:42:11.507Z,21.10
2019-02-28T19:44:42.989Z,23.20
2019-02-28T19:47:18.854Z,17.17
2019-02-28T19:49:49.753Z,21.63
2019-02-28T19:52:20.717Z,23.30
2019-02-28T19:54:51.679Z,21.67
2019-02-28T19:57:23.830Z,21.70
2019-02-28T19:59:54.771Z,20.80
2019-02-28T20:02:26.168Z,20.93
2019-02-28T20:04:58.582Z,20.20
2019-02-28T20:07:30.453Z,20.17
2019-02-28T20:10:01.869Z,20.40
2019-02-28T20:12:34.855Z,18.17
2019-02-28T20:15:06.821Z,20.57
2019-02-28T20:17:38.832Z,22.43
2019-02-28T20:20:12.527Z,18.33
2019-02-28T20:22:45.829Z,20.57
2019-02-28T20:25:23.082Z,16.77
2019-02-28T20:27:54.250Z,14.37
2019-02-28T20:30:26.750Z,22.20
2019-02-28T20:32:57.738Z,18.43
2019-02-28T20:35:29.020Z,17.07
2019-02-28T20:38:00.331Z,16.63
2019-02-28T20:40:31.459Z,19.97
2019-02-28T20:43:03.011Z,17.80
2019-02-28T20:45:34.106Z,25.43
2019-02-28T20:48:05.244Z,17.03
2019-02-28T20:50:38.610Z,19.77
2019-02-28T20:53:09.611Z,16.70
2019-02-28T20:55:40.820Z,20.67
2019-02-28T20:58:13.175Z,23.40
2019-02-28T21:00:45.487Z,22.47
2019-02-28T21:03:16.883Z,18.00
2019-02-28T21:05:48.336Z,26.10
2019-02-28T21:08:19.476Z,23.57
2019-02-28T21:10:50.368Z,26.40
2019-02-28T21:13:21.516Z,25.50
2019-02-28T21:15:52.724Z,23.37
2019-02-28T21:18:23.887Z,24.97
2019-02-28T21:20:55.042Z,24.23
2019-02-28T21:23:26.228Z,25.70
2019-02-28T21:25:57.440Z,25.13
2019-02-28T21:28:29.851Z,29.13
2019-02-28T21:31:00.788Z,27.00
2019-02-28T21:33:32.135Z,24.30
2019-02-28T21:36:03.527Z,25.13
2019-02-28T21:38:35.115Z,22.83
2019-02-28T21:41:06.524Z,24.37
2019-02-28T21:43:43.309Z,29.57
2019-02-28T21:46:14.916Z,23.73
2019-02-28T21:48:46.608Z,26.27
2019-02-28T21:51:17.618Z,24.13
2019-02-28T21:53:50.470Z,24.90
2019-02-28T21:56:21.584Z,24.30
2019-02-28T21:58:52.740Z,26.50
2019-02-28T22:01:23.874Z,25.90
2019-02-28T22:03:55.017Z,22.83
2019-02-28T22:06:26.303Z,23.03
2019-02-28T22:08:58.187Z,23.60
2019-02-28T22:11:29.065Z,27.63
2019-02-28T22:13:59.962Z,23.67
2019-02-28T22:16:31.122Z,21.87
2019-02-28T22:19:02.328Z,27.97
2019-02-28T22:21:33.459Z,25.60
2019-02-28T22:24:04.729Z,23.33
2019-02-28T22:26:35.903Z,27.40
2019-02-28T22:29:06.885Z,23.93
2019-02-28T22:31:57.394Z,21.20
2019-02-28T22:34:33.959Z,22.47
2019-02-28T22:37:05.088Z,25.03
2019-02-28T22:39:36.235Z,25.27
2019-02-28T22:42:07.139Z,22.87
2019-02-28T22:44:38.285Z,24.10
2019-02-28T22:47:09.671Z,23.43
2019-02-28T22:49:40.816Z,28.40
2019-02-28T22:52:11.717Z,25.73
2019-02-28T22:54:42.885Z,25.40
2019-02-28T22:57:14.088Z,24.57
2019-02-28T22:59:45.476Z,24.23
2019-02-28T23:02:16.701Z,25.00
2019-02-28T23:04:47.862Z,24.57
2019-02-28T23:07:18.999Z,26.10
2019-02-28T23:09:51.186Z,22.77
2019-02-28T23:12:22.571Z,26.37
2019-02-28T23:14:53.724Z,30.50
2019-02-28T23:17:24.967Z,25.67
2019-02-28T23:19:55.878Z,28.93
2019-02-28T23:22:27.006Z,28.90
2019-02-28T23:24:58.531Z,29.27
2019-02-28T23:27:29.418Z,28.87
2019-02-28T23:30:11.803Z,33.03
2019-02-28T23:32:53.244Z,30.23
2019-02-28T23:35:29.254Z,33.70
2019-02-28T23:38:00.155Z,32.97
2019-02-28T23:40:31.719Z,32.20
2019-02-28T23:43:02.921Z,31.43
2019-02-28T23:45:34.132Z,27.57
2019-02-28T23:48:05.416Z,30.37
2019-02-28T23:50:36.641Z,31.87
2019-02-28T23:53:07.770Z,32.20
2019-02-28T23:55:38.927Z,27.87
2019-02-28T23:58:10.139Z,31.43
